sensor_id;sensor_type;location;lat;lon;timestamp;P1;durP1;ratioP1;P2;durP2;ratioP2
11539;SDS011;5826;54.756;9.192;2023-03-01T00:00:52;22.50;;;8.47;;
11539;SDS011;5826;54.756;9.192;2023-03-01T00:03:17;39.07;;;9.57;;
11539;SDS011;5826;54.756;9.192;2023-03-01T00:05:46;17.67;;;8.10;;
11539;SDS011;5826;54.756;9.192;2023-03-01T00:08:12;26.57;;;9.00;;
11539;SDS011;5826;54.756;9.192;2023-03-01T00:10:37;13.17;;;6.60;;
11539;SDS011;5826;54.756;9.192;2023-03-01T00:13:03;19.60;;;7.93;;
11539;SDS011;5826;54.756;9.192;2023-03-01T00:15:30;9.37;;;6.47;;
11539;SDS011;5826;54.756;9.192;2023-03-01T00:17:56;8.47;;;6.10;;
11539;SDS011;5826;54.756;9.192;2023-03-01T00:20:22;13.93;;;7.17;;
11539;SDS011;5826;54.756;9.192;2023-03-01T00:22:47;20.90;;;7.70;;
11539;SDS011;5826;54.756;9.192;2023-03-01T00:25:13;21.07;;;7.03;;
11539;SDS011;5826;54.756;9.192;2023-03-01T00:27:38;11.60;;;6.67;;
11539;SDS011;5826;54.756;9.192;2023-03-01T00:30:04;7.70;;;5.83;;
11539;SDS011;5826;54.756;9.192;2023-03-01T00:32:30;12.47;;;6.33;;
11539;SDS011;5826;54.756;9.192;2023-03-01T00:34:55;21.83;;;7.57;;
11539;SDS011;5826;54.756;9.192;2023-03-01T00:37:21;11.43;;;5.57;;
11539;SDS011;5826;54.756;9.192;2023-03-01T00:39:47;16.47;;;7.37;;
11539;SDS011;5826;54.756;9.192;2023-03-01T00:42:13;15.57;;;6.47;;
11539;SDS011;5826;54.756;9.192;2023-03-01T00:44:39;12.90;;;6.30;;
11539;SDS011;5826;54.756;9.192;2023-03-01T00:47:04;11.07;;;5.43;;
11539;SDS011;5826;54.756;9.192;2023-03-01T00:49:30;12.67;;;5.43;;
11539;SDS011;5826;54.756;9.192;2023-03-01T00:51:55;8.33;;;5.20;;
11539;SDS011;5826;54.756;9.192;2023-03-01T00:54:21;11.30;;;6.87;;
11539;SDS011;5826;54.756;9.192;2023-03-01T00:56:46;6.37;;;5.53;;
11539;SDS011;5826;54.756;9.192;2023-03-01T00:59:12;7.60;;;5.90;;
11539;SDS011;5826;54.756;9.192;2023-03-01T01:01:37;7.17;;;5.80;;
11539;SDS011;5826;54.756;9.192;2023-03-01T01:04:04;10.13;;;6.30;;
11539;SDS011;5826;54.756;9.192;2023-03-01T01:06:35;11.07;;;5.63;;
11539;SDS011;5826;54.756;9.192;2023-03-01T01:09:04;18.53;;;6.60;;
11539;SDS011;5826;54.756;9.192;2023-03-01T01:11:31;17.97;;;6.37;;
11539;SDS011;5826;54.756;9.192;2023-03-01T01:13:57;8.77;;;5.67;;
11539;SDS011;5826;54.756;9.192;2023-03-01T01:16:24;5.67;;;5.03;;
11539;SDS011;5826;54.756;9.192;2023-03-01T01:18:52;5.53;;;4.90;;
11539;SDS011;5826;54.756;9.192;2023-03-01T01:21:19;11.00;;;5.63;;
11539;SDS011;5826;54.756;9.192;2023-03-01T01:23:47;9.57;;;5.80;;
11539;SDS011;5826;54.756;9.192;2023-03-01T01:26:15;12.30;;;5.73;;
11539;SDS011;5826;54.756;9.192;2023-03-01T01:28:45;6.00;;;5.40;;
11539;SDS011;5826;54.756;9.192;2023-03-01T01:31:11;14.20;;;5.83;;
11539;SDS011;5826;54.756;9.192;2023-03-01T01:33:37;5.50;;;4.57;;
11539;SDS011;5826;54.756;9.192;2023-03-01T01:36:04;12.10;;;5.70;;
11539;SDS011;5826;54.756;9.192;2023-03-01T01:38:30;5.83;;;4.30;;
11539;SDS011;5826;54.756;9.192;2023-03-01T01:40:56;5.33;;;4.53;;
11539;SDS011;5826;54.756;9.192;2023-03-01T01:43:38;5.00;;;4.20;;
11539;SDS011;5826;54.756;9.192;2023-03-01T01:46:32;7.33;;;5.13;;
11539;SDS011;5826;54.756;9.192;2023-03-01T01:49:02;4.57;;;3.97;;
11539;SDS011;5826;54.756;9.192;2023-03-01T01:51:35;5.33;;;4.47;;
11539;SDS011;5826;54.756;9.192;2023-03-01T01:54:12;5.87;;;4.07;;
11539;SDS011;5826;54.756;9.192;2023-03-01T01:56:50;10.00;;;4.27;;
11539;SDS011;5826;54.756;9.192;2023-03-01T01:59:20;6.57;;;3.97;;
11539;SDS011;5826;54.756;9.192;2023-03-01T02:01:49;5.60;;;4.00;;
11539;SDS011;5826;54.756;9.192;2023-03-01T02:04:16;5.83;;;3.70;;
11539;SDS011;5826;54.756;9.192;2023-03-01T02:06:44;5.63;;;2.80;;
11539;SDS011;5826;54.756;9.192;2023-03-01T02:09:16;6.00;;;3.40;;
11539;SDS011;5826;54.756;9.192;2023-03-01T02:11:45;9.10;;;3.87;;
11539;SDS011;5826;54.756;9.192;2023-03-01T02:14:11;7.00;;;3.73;;
11539;SDS011;5826;54.756;9.192;2023-03-01T02:16:37;7.50;;;3.60;;
11539;SDS011;5826;54.756;9.192;2023-03-01T02:19:03;12.83;;;3.73;;
11539;SDS011;5826;54.756;9.192;2023-03-01T02:24:10;3.97;;;3.10;;
11539;SDS011;5826;54.756;9.192;2023-03-01T02:26:50;5.10;;;3.37;;
11539;SDS011;5826;54.756;9.192;2023-03-01T02:29:19;4.10;;;2.80;;
11539;SDS011;5826;54.756;9.192;2023-03-01T02:31:47;5.50;;;3.50;;
11539;SDS011;5826;54.756;9.192;2023-03-01T02:34:14;5.07;;;3.10;;
11539;SDS011;5826;54.756;9.192;2023-03-01T02:39:18;4.20;;;3.47;;
11539;SDS011;5826;54.756;9.192;2023-03-01T02:41:51;3.60;;;3.20;;
11539;SDS011;5826;54.756;9.192;2023-03-01T02:44:18;5.87;;;4.00;;
11539;SDS011;5826;54.756;9.192;2023-03-01T02:46:46;5.20;;;3.87;;
11539;SDS011;5826;54.756;9.192;2023-03-01T02:49:30;4.37;;;3.30;;
11539;SDS011;5826;54.756;9.192;2023-03-01T02:52:07;9.33;;;4.07;;
11539;SDS011;5826;54.756;9.192;2023-03-01T02:57:17;5.23;;;3.83;;
11539;SDS011;5826;54.756;9.192;2023-03-01T02:59:44;5.10;;;3.60;;
11539;SDS011;5826;54.756;9.192;2023-03-01T03:02:23;6.87;;;4.00;;
11539;SDS011;5826;54.756;9.192;2023-03-01T03:05:01;6.00;;;4.10;;
11539;SDS011;5826;54.756;9.192;2023-03-01T03:07:31;7.97;;;4.00;;
11539;SDS011;5826;54.756;9.192;2023-03-01T03:09:58;3.83;;;3.43;;
11539;SDS011;5826;54.756;9.192;2023-03-01T03:12:23;6.40;;;4.57;;
11539;SDS011;5826;54.756;9.192;2023-03-01T03:14:49;5.40;;;4.30;;
11539;SDS011;5826;54.756;9.192;2023-03-01T03:17:14;4.77;;;3.90;;
11539;SDS011;5826;54.756;9.192;2023-03-01T03:19:40;5.30;;;3.87;;
11539;SDS011;5826;54.756;9.192;2023-03-01T03:22:05;7.53;;;4.13;;
11539;SDS011;5826;54.756;9.192;2023-03-01T03:24:33;11.40;;;4.40;;
11539;SDS011;5826;54.756;9.192;2023-03-01T03:27:03;4.37;;;3.90;;
11539;SDS011;5826;54.756;9.192;2023-03-01T03:29:29;4.20;;;3.80;;
11539;SDS011;5826;54.756;9.192;2023-03-01T03:31:55;10.33;;;4.80;;
11539;SDS011;5826;54.756;9.192;2023-03-01T03:34:20;5.70;;;4.00;;
11539;SDS011;5826;54.756;9.192;2023-03-01T03:36:46;6.13;;;3.90;;
11539;SDS011;5826;54.756;9.192;2023-03-01T03:39:11;5.00;;;3.67;;
11539;SDS011;5826;54.756;9.192;2023-03-01T03:41:37;4.53;;;4.07;;
11539;SDS011;5826;54.756;9.192;2023-03-01T03:44:02;5.77;;;4.23;;
11539;SDS011;5826;54.756;9.192;2023-03-01T03:46:28;5.90;;;4.10;;
11539;SDS011;5826;54.756;9.192;2023-03-01T03:48:53;9.80;;;4.63;;
11539;SDS011;5826;54.756;9.192;2023-03-01T03:51:19;4.57;;;3.97;;
11539;SDS011;5826;54.756;9.192;2023-03-01T03:53:47;4.30;;;3.60;;
11539;SDS011;5826;54.756;9.192;2023-03-01T03:56:13;9.77;;;4.37;;
11539;SDS011;5826;54.756;9.192;2023-03-01T03:58:38;17.30;;;4.93;;
11539;SDS011;5826;54.756;9.192;2023-03-01T04:01:04;9.47;;;4.53;;
11539;SDS011;5826;54.756;9.192;2023-03-01T04:03:30;5.67;;;4.40;;
11539;SDS011;5826;54.756;9.192;2023-03-01T04:05:58;7.03;;;4.40;;
11539;SDS011;5826;54.756;9.192;2023-03-01T04:08:24;7.47;;;4.40;;
11539;SDS011;5826;54.756;9.192;2023-03-01T04:10:51;5.33;;;4.17;;
11539;SDS011;5826;54.756;9.192;2023-03-01T04:13:21;12.80;;;4.50;;
11539;SDS011;5826;54.756;9.192;2023-03-01T04:15:50;11.90;;;4.23;;
11539;SDS011;5826;54.756;9.192;2023-03-01T04:18:16;3.13;;;2.83;;
11539;SDS011;5826;54.756;9.192;2023-03-01T04:20:44;4.97;;;2.80;;
11539;SDS011;5826;54.756;9.192;2023-03-01T04:23:14;4.93;;;2.43;;
11539;SDS011;5826;54.756;9.192;2023-03-01T04:25:53;5.00;;;2.70;;
11539;SDS011;5826;54.756;9.192;2023-03-01T04:28:25;4.30;;;2.47;;
11539;SDS011;5826;54.756;9.192;2023-03-01T04:30:52;2.40;;;2.20;;
11539;SDS011;5826;54.756;9.192;2023-03-01T04:33:18;15.53;;;2.90;;
11539;SDS011;5826;54.756;9.192;2023-03-01T04:35:43;2.10;;;1.90;;
11539;SDS011;5826;54.756;9.192;2023-03-01T04:38:09;7.63;;;2.67;;
11539;SDS011;5826;54.756;9.192;2023-03-01T04:40:35;2.30;;;2.07;;
11539;SDS011;5826;54.756;9.192;2023-03-01T04:43:01;5.67;;;2.03;;
11539;SDS011;5826;54.756;9.192;2023-03-01T04:45:28;6.50;;;2.50;;
11539;SDS011;5826;54.756;9.192;2023-03-01T04:47:53;2.63;;;1.70;;
11539;SDS011;5826;54.756;9.192;2023-03-01T04:50:19;1.50;;;1.40;;
11539;SDS011;5826;54.756;9.192;2023-03-01T04:52:45;1.60;;;1.37;;
11539;SDS011;5826;54.756;9.192;2023-03-01T04:55:12;13.43;;;2.00;;
11539;SDS011;5826;54.756;9.192;2023-03-01T04:57:38;1.40;;;1.30;;
11539;SDS011;5826;54.756;9.192;2023-03-01T05:00:04;1.20;;;1.10;;
11539;SDS011;5826;54.756;9.192;2023-03-01T05:02:48;1.70;;;1.60;;
11539;SDS011;5826;54.756;9.192;2023-03-01T05:05:20;3.97;;;1.60;;
11539;SDS011;5826;54.756;9.192;2023-03-01T05:07:50;1.40;;;1.30;;
11539;SDS011;5826;54.756;9.192;2023-03-01T05:10:20;1.70;;;1.60;;
11539;SDS011;5826;54.756;9.192;2023-03-01T05:12:45;1.57;;;1.30;;
11539;SDS011;5826;54.756;9.192;2023-03-01T05:15:11;2.67;;;1.47;;
11539;SDS011;5826;54.756;9.192;2023-03-01T05:17:37;7.00;;;1.97;;
11539;SDS011;5826;54.756;9.192;2023-03-01T05:20:03;1.53;;;1.43;;
11539;SDS011;5826;54.756;9.192;2023-03-01T05:22:33;3.60;;;2.03;;
11539;SDS011;5826;54.756;9.192;2023-03-01T05:24:59;6.53;;;1.80;;
11539;SDS011;5826;54.756;9.192;2023-03-01T05:27:24;4.80;;;1.90;;
11539;SDS011;5826;54.756;9.192;2023-03-01T05:29:50;9.03;;;2.20;;
11539;SDS011;5826;54.756;9.192;2023-03-01T05:32:15;2.93;;;1.70;;
11539;SDS011;5826;54.756;9.192;2023-03-01T05:34:41;4.03;;;1.80;;
11539;SDS011;5826;54.756;9.192;2023-03-01T05:37:07;6.93;;;1.80;;
11539;SDS011;5826;54.756;9.192;2023-03-01T05:39:33;4.43;;;1.80;;
11539;SDS011;5826;54.756;9.192;2023-03-01T05:41:59;2.77;;;1.60;;
11539;SDS011;5826;54.756;9.192;2023-03-01T05:44:26;4.70;;;1.70;;
11539;SDS011;5826;54.756;9.192;2023-03-01T05:46:53;3.47;;;1.83;;
11539;SDS011;5826;54.756;9.192;2023-03-01T05:49:19;2.03;;;1.83;;
11539;SDS011;5826;54.756;9.192;2023-03-01T05:51:49;4.27;;;1.97;;
11539;SDS011;5826;54.756;9.192;2023-03-01T05:54:16;1.50;;;1.40;;
11539;SDS011;5826;54.756;9.192;2023-03-01T05:56:42;2.00;;;1.80;;
11539;SDS011;5826;54.756;9.192;2023-03-01T05:59:08;2.10;;;1.80;;
11539;SDS011;5826;54.756;9.192;2023-03-01T06:01:34;4.33;;;1.87;;
11539;SDS011;5826;54.756;9.192;2023-03-01T06:04:00;4.13;;;1.60;;
11539;SDS011;5826;54.756;9.192;2023-03-01T06:06:26;1.57;;;1.47;;
11539;SDS011;5826;54.756;9.192;2023-03-01T06:08:52;1.63;;;1.40;;
11539;SDS011;5826;54.756;9.192;2023-03-01T06:11:18;2.23;;;1.40;;
11539;SDS011;5826;54.756;9.192;2023-03-01T06:13:44;4.50;;;1.53;;
11539;SDS011;5826;54.756;9.192;2023-03-01T06:16:10;2.30;;;1.10;;
11539;SDS011;5826;54.756;9.192;2023-03-01T06:18:37;1.10;;;1.00;;
11539;SDS011;5826;54.756;9.192;2023-03-01T06:21:03;1.47;;;0.93;;
11539;SDS011;5826;54.756;9.192;2023-03-01T06:23:29;2.60;;;1.00;;
11539;SDS011;5826;54.756;9.192;2023-03-01T06:25:55;2.03;;;1.00;;
11539;SDS011;5826;54.756;9.192;2023-03-01T06:28:20;1.50;;;1.00;;
11539;SDS011;5826;54.756;9.192;2023-03-01T06:30:46;3.30;;;1.00;;
11539;SDS011;5826;54.756;9.192;2023-03-01T06:33:12;1.03;;;0.90;;
11539;SDS011;5826;54.756;9.192;2023-03-01T06:35:38;1.50;;;1.00;;
11539;SDS011;5826;54.756;9.192;2023-03-01T06:38:04;3.10;;;1.20;;
11539;SDS011;5826;54.756;9.192;2023-03-01T06:40:30;3.30;;;1.00;;
11539;SDS011;5826;54.756;9.192;2023-03-01T06:42:56;1.80;;;1.20;;
11539;SDS011;5826;54.756;9.192;2023-03-01T06:45:23;1.30;;;1.20;;
11539;SDS011;5826;54.756;9.192;2023-03-01T06:47:49;2.03;;;1.00;;
11539;SDS011;5826;54.756;9.192;2023-03-01T06:50:15;4.23;;;1.63;;
11539;SDS011;5826;54.756;9.192;2023-03-01T06:52:42;10.67;;;2.10;;
11539;SDS011;5826;54.756;9.192;2023-03-01T06:55:09;3.60;;;1.97;;
11539;SDS011;5826;54.756;9.192;2023-03-01T06:57:35;2.97;;;1.40;;
11539;SDS011;5826;54.756;9.192;2023-03-01T07:00:01;2.87;;;1.40;;
11539;SDS011;5826;54.756;9.192;2023-03-01T07:02:28;5.63;;;2.03;;
11539;SDS011;5826;54.756;9.192;2023-03-01T07:04:54;2.00;;;1.80;;
11539;SDS011;5826;54.756;9.192;2023-03-01T07:07:19;2.40;;;1.50;;
11539;SDS011;5826;54.756;9.192;2023-03-01T07:09:45;5.47;;;2.20;;
11539;SDS011;5826;54.756;9.192;2023-03-01T07:12:11;6.00;;;1.90;;
11539;SDS011;5826;54.756;9.192;2023-03-01T07:14:36;6.03;;;1.90;;
11539;SDS011;5826;54.756;9.192;2023-03-01T07:17:02;9.60;;;2.20;;
11539;SDS011;5826;54.756;9.192;2023-03-01T07:19:27;2.13;;;1.60;;
11539;SDS011;5826;54.756;9.192;2023-03-01T07:21:53;2.23;;;1.40;;
11539;SDS011;5826;54.756;9.192;2023-03-01T07:24:20;1.97;;;1.70;;
11539;SDS011;5826;54.756;9.192;2023-03-01T07:26:49;4.83;;;2.00;;
11539;SDS011;5826;54.756;9.192;2023-03-01T07:29:16;7.03;;;1.93;;
11539;SDS011;5826;54.756;9.192;2023-03-01T07:31:42;3.40;;;1.80;;
11539;SDS011;5826;54.756;9.192;2023-03-01T07:34:08;3.40;;;2.13;;
11539;SDS011;5826;54.756;9.192;2023-03-01T07:36:33;3.30;;;2.13;;
11539;SDS011;5826;54.756;9.192;2023-03-01T07:38:59;3.50;;;2.50;;
11539;SDS011;5826;54.756;9.192;2023-03-01T07:41:27;2.57;;;2.10;;
11539;SDS011;5826;54.756;9.192;2023-03-01T07:43:53;4.20;;;2.20;;
11539;SDS011;5826;54.756;9.192;2023-03-01T07:46:18;5.10;;;2.30;;
11539;SDS011;5826;54.756;9.192;2023-03-01T07:48:44;3.10;;;2.13;;
11539;SDS011;5826;54.756;9.192;2023-03-01T07:51:09;7.13;;;2.37;;
11539;SDS011;5826;54.756;9.192;2023-03-01T07:53:35;2.73;;;2.23;;
11539;SDS011;5826;54.756;9.192;2023-03-01T07:56:04;4.63;;;2.53;;
11539;SDS011;5826;54.756;9.192;2023-03-01T07:58:35;4.13;;;2.57;;
11539;SDS011;5826;54.756;9.192;2023-03-01T08:01:06;3.33;;;2.70;;
11539;SDS011;5826;54.756;9.192;2023-03-01T08:03:36;5.47;;;3.20;;
11539;SDS011;5826;54.756;9.192;2023-03-01T08:06:03;10.07;;;3.20;;
11539;SDS011;5826;54.756;9.192;2023-03-01T08:08:30;2.87;;;2.57;;
11539;SDS011;5826;54.756;9.192;2023-03-01T08:10:56;4.30;;;2.57;;
11539;SDS011;5826;54.756;9.192;2023-03-01T08:13:23;4.77;;;2.80;;
11539;SDS011;5826;54.756;9.192;2023-03-01T08:15:49;2.67;;;2.47;;
11539;SDS011;5826;54.756;9.192;2023-03-01T08:18:15;3.03;;;2.70;;
11539;SDS011;5826;54.756;9.192;2023-03-01T08:20:41;5.07;;;3.23;;
11539;SDS011;5826;54.756;9.192;2023-03-01T08:23:07;10.13;;;3.97;;
11539;SDS011;5826;54.756;9.192;2023-03-01T08:25:32;4.17;;;3.17;;
11539;SDS011;5826;54.756;9.192;2023-03-01T08:27:58;3.77;;;2.93;;
11539;SDS011;5826;54.756;9.192;2023-03-01T08:30:23;3.47;;;3.07;;
11539;SDS011;5826;54.756;9.192;2023-03-01T08:32:49;3.50;;;3.03;;
11539;SDS011;5826;54.756;9.192;2023-03-01T08:35:15;3.00;;;2.70;;
11539;SDS011;5826;54.756;9.192;2023-03-01T08:37:41;2.90;;;2.60;;
11539;SDS011;5826;54.756;9.192;2023-03-01T08:40:07;2.77;;;2.40;;
11539;SDS011;5826;54.756;9.192;2023-03-01T08:42:34;3.70;;;3.30;;
11539;SDS011;5826;54.756;9.192;2023-03-01T08:45:00;3.13;;;2.80;;
11539;SDS011;5826;54.756;9.192;2023-03-01T08:47:26;6.70;;;3.83;;
11539;SDS011;5826;54.756;9.192;2023-03-01T08:49:52;3.73;;;3.30;;
11539;SDS011;5826;54.756;9.192;2023-03-01T08:52:17;4.50;;;3.60;;
11539;SDS011;5826;54.756;9.192;2023-03-01T08:54:44;9.37;;;4.33;;
11539;SDS011;5826;54.756;9.192;2023-03-01T08:57:09;3.50;;;3.20;;
11539;SDS011;5826;54.756;9.192;2023-03-01T08:59:35;4.73;;;3.63;;
11539;SDS011;5826;54.756;9.192;2023-03-01T09:02:04;3.50;;;3.20;;
11539;SDS011;5826;54.756;9.192;2023-03-01T09:04:30;4.20;;;3.57;;
11539;SDS011;5826;54.756;9.192;2023-03-01T09:06:56;3.83;;;3.37;;
11539;SDS011;5826;54.756;9.192;2023-03-01T09:09:21;3.73;;;3.33;;
11539;SDS011;5826;54.756;9.192;2023-03-01T09:11:47;6.80;;;4.00;;
11539;SDS011;5826;54.756;9.192;2023-03-01T09:14:14;6.80;;;4.10;;
11539;SDS011;5826;54.756;9.192;2023-03-01T09:16:40;5.80;;;4.67;;
11539;SDS011;5826;54.756;9.192;2023-03-01T09:19:06;3.97;;;3.43;;
11539;SDS011;5826;54.756;9.192;2023-03-01T09:21:31;5.97;;;4.30;;
11539;SDS011;5826;54.756;9.192;2023-03-01T09:23:57;4.17;;;3.57;;
11539;SDS011;5826;54.756;9.192;2023-03-01T09:26:23;14.67;;;8.23;;
11539;SDS011;5826;54.756;9.192;2023-03-01T09:28:51;8.57;;;5.43;;
11539;SDS011;5826;54.756;9.192;2023-03-01T09:31:19;6.77;;;5.87;;
11539;SDS011;5826;54.756;9.192;2023-03-01T09:33:46;6.27;;;5.27;;
11539;SDS011;5826;54.756;9.192;2023-03-01T09:36:14;5.50;;;4.90;;
11539;SDS011;5826;54.756;9.192;2023-03-01T09:38:41;5.60;;;5.03;;
11539;SDS011;5826;54.756;9.192;2023-03-01T09:46:13;4.90;;;4.40;;
11539;SDS011;5826;54.756;9.192;2023-03-01T09:48:42;4.73;;;4.23;;
11539;SDS011;5826;54.756;9.192;2023-03-01T09:51:15;5.60;;;5.10;;
11539;SDS011;5826;54.756;9.192;2023-03-01T09:53:44;5.53;;;4.33;;
11539;SDS011;5826;54.756;9.192;2023-03-01T09:56:20;4.90;;;4.40;;
11539;SDS011;5826;54.756;9.192;2023-03-01T09:59:17;5.17;;;4.10;;
11539;SDS011;5826;54.756;9.192;2023-03-01T10:07:29;7.80;;;5.23;;
11539;SDS011;5826;54.756;9.192;2023-03-01T10:10:07;6.93;;;5.60;;
11539;SDS011;5826;54.756;9.192;2023-03-01T10:12:37;6.80;;;5.60;;
11539;SDS011;5826;54.756;9.192;2023-03-01T10:23:02;4.93;;;4.43;;
11539;SDS011;5826;54.756;9.192;2023-03-01T10:28:10;4.10;;;3.70;;
11539;SDS011;5826;54.756;9.192;2023-03-01T10:30:40;4.67;;;4.23;;
11539;SDS011;5826;54.756;9.192;2023-03-01T10:33:31;4.73;;;4.23;;
11539;SDS011;5826;54.756;9.192;2023-03-01T10:35:57;5.10;;;4.43;;
11539;SDS011;5826;54.756;9.192;2023-03-01T10:38:23;4.07;;;3.60;;
11539;SDS011;5826;54.756;9.192;2023-03-01T10:40:50;4.20;;;3.80;;
11539;SDS011;5826;54.756;9.192;2023-03-01T10:43:24;3.87;;;3.47;;
11539;SDS011;5826;54.756;9.192;2023-03-01T10:45:51;5.60;;;4.50;;
11539;SDS011;5826;54.756;9.192;2023-03-01T10:50:51;4.60;;;4.00;;
11539;SDS011;5826;54.756;9.192;2023-03-01T10:56:09;4.10;;;3.77;;
11539;SDS011;5826;54.756;9.192;2023-03-01T10:58:40;4.63;;;4.07;;
11539;SDS011;5826;54.756;9.192;2023-03-01T11:01:31;5.47;;;4.03;;
11539;SDS011;5826;54.756;9.192;2023-03-01T11:06:30;4.83;;;4.43;;
11539;SDS011;5826;54.756;9.192;2023-03-01T11:08:56;5.03;;;4.50;;
11539;SDS011;5826;54.756;9.192;2023-03-01T11:11:37;4.63;;;3.90;;
11539;SDS011;5826;54.756;9.192;2023-03-01T11:14:07;3.60;;;3.30;;
11539;SDS011;5826;54.756;9.192;2023-03-01T11:16:41;4.23;;;3.70;;
11539;SDS011;5826;54.756;9.192;2023-03-01T11:21:35;4.80;;;4.00;;
11539;SDS011;5826;54.756;9.192;2023-03-01T11:24:24;3.60;;;3.30;;
11539;SDS011;5826;54.756;9.192;2023-03-01T11:26:56;3.63;;;3.27;;
11539;SDS011;5826;54.756;9.192;2023-03-01T11:29:33;3.47;;;2.90;;
11539;SDS011;5826;54.756;9.192;2023-03-01T11:32:07;4.23;;;3.83;;
11539;SDS011;5826;54.756;9.192;2023-03-01T11:34:56;4.53;;;4.13;;
11539;SDS011;5826;54.756;9.192;2023-03-01T11:48:34;4.70;;;3.70;;
11539;SDS011;5826;54.756;9.192;2023-03-01T11:51:20;5.23;;;4.33;;
11539;SDS011;5826;54.756;9.192;2023-03-01T11:53:51;4.83;;;4.27;;
11539;SDS011;5826;54.756;9.192;2023-03-01T11:56:31;3.50;;;2.80;;
11539;SDS011;5826;54.756;9.192;2023-03-01T11:59:09;4.20;;;3.80;;
11539;SDS011;5826;54.756;9.192;2023-03-01T12:15:50;4.67;;;4.13;;
11539;SDS011;5826;54.756;9.192;2023-03-01T12:18:25;5.53;;;4.40;;
11539;SDS011;5826;54.756;9.192;2023-03-01T12:24:03;4.73;;;4.00;;
11539;SDS011;5826;54.756;9.192;2023-03-01T12:26:41;6.00;;;4.00;;
11539;SDS011;5826;54.756;9.192;2023-03-01T12:29:20;4.53;;;3.60;;
11539;SDS011;5826;54.756;9.192;2023-03-01T12:32:23;5.57;;;4.40;;
11539;SDS011;5826;54.756;9.192;2023-03-01T12:35:16;5.30;;;4.20;;
11539;SDS011;5826;54.756;9.192;2023-03-01T12:37:58;5.67;;;4.60;;
11539;SDS011;5826;54.756;9.192;2023-03-01T12:43:30;7.10;;;5.90;;
11539;SDS011;5826;54.756;9.192;2023-03-01T12:51:25;6.93;;;5.97;;
11539;SDS011;5826;54.756;9.192;2023-03-01T12:53:55;8.27;;;6.93;;
11539;SDS011;5826;54.756;9.192;2023-03-01T12:56:27;6.43;;;5.40;;
11539;SDS011;5826;54.756;9.192;2023-03-01T12:59:07;6.00;;;5.07;;
11539;SDS011;5826;54.756;9.192;2023-03-01T13:07:02;8.30;;;6.47;;
11539;SDS011;5826;54.756;9.192;2023-03-01T13:09:46;8.20;;;6.37;;
11539;SDS011;5826;54.756;9.192;2023-03-01T13:13:00;5.60;;;4.63;;
11539;SDS011;5826;54.756;9.192;2023-03-01T13:18:04;8.10;;;6.33;;
11539;SDS011;5826;54.756;9.192;2023-03-01T13:20:51;7.23;;;5.33;;
11539;SDS011;5826;54.756;9.192;2023-03-01T13:26:30;6.67;;;5.20;;
11539;SDS011;5826;54.756;9.192;2023-03-01T13:49:47;5.47;;;4.97;;
11539;SDS011;5826;54.756;9.192;2023-03-01T13:52:30;5.63;;;4.30;;
11539;SDS011;5826;54.756;9.192;2023-03-01T13:57:39;4.23;;;3.83;;
11539;SDS011;5826;54.756;9.192;2023-03-01T14:00:07;6.03;;;5.43;;
11539;SDS011;5826;54.756;9.192;2023-03-01T14:02:59;4.13;;;3.73;;
11539;SDS011;5826;54.756;9.192;2023-03-01T14:05:25;4.00;;;3.53;;
11539;SDS011;5826;54.756;9.192;2023-03-01T14:07:51;3.90;;;3.50;;
11539;SDS011;5826;54.756;9.192;2023-03-01T14:10:17;3.90;;;3.60;;
11539;SDS011;5826;54.756;9.192;2023-03-01T14:15:27;4.40;;;3.90;;
11539;SDS011;5826;54.756;9.192;2023-03-01T14:17:59;6.87;;;4.90;;
11539;SDS011;5826;54.756;9.192;2023-03-01T14:20:43;4.07;;;3.33;;
11539;SDS011;5826;54.756;9.192;2023-03-01T14:23:17;3.70;;;3.33;;
11539;SDS011;5826;54.756;9.192;2023-03-01T14:25:46;4.90;;;4.37;;
11539;SDS011;5826;54.756;9.192;2023-03-01T14:28:26;4.93;;;4.00;;
11539;SDS011;5826;54.756;9.192;2023-03-01T14:30:54;4.73;;;4.23;;
11539;SDS011;5826;54.756;9.192;2023-03-01T14:33:25;3.83;;;3.33;;
11539;SDS011;5826;54.756;9.192;2023-03-01T14:35:59;4.20;;;3.77;;
11539;SDS011;5826;54.756;9.192;2023-03-01T14:38:31;4.07;;;3.67;;
11539;SDS011;5826;54.756;9.192;2023-03-01T14:41:00;3.70;;;3.23;;
11539;SDS011;5826;54.756;9.192;2023-03-01T14:43:29;3.93;;;3.57;;
11539;SDS011;5826;54.756;9.192;2023-03-01T14:45:56;3.20;;;2.93;;
11539;SDS011;5826;54.756;9.192;2023-03-01T14:48:22;3.27;;;2.97;;
11539;SDS011;5826;54.756;9.192;2023-03-01T14:50:48;3.00;;;2.80;;
11539;SDS011;5826;54.756;9.192;2023-03-01T14:53:20;5.47;;;4.97;;
11539;SDS011;5826;54.756;9.192;2023-03-01T14:55:53;3.40;;;3.10;;
11539;SDS011;5826;54.756;9.192;2023-03-01T14:58:22;5.03;;;4.53;;
11539;SDS011;5826;54.756;9.192;2023-03-01T15:00:50;4.33;;;3.93;;
11539;SDS011;5826;54.756;9.192;2023-03-01T15:03:25;3.90;;;3.53;;
11539;SDS011;5826;54.756;9.192;2023-03-01T15:06:02;3.50;;;3.20;;
11539;SDS011;5826;54.756;9.192;2023-03-01T15:08:29;3.70;;;3.10;;
11539;SDS011;5826;54.756;9.192;2023-03-01T15:11:32;3.40;;;3.10;;
11539;SDS011;5826;54.756;9.192;2023-03-01T15:13:55;3.20;;;2.90;;
11539;SDS011;5826;54.756;9.192;2023-03-01T15:16:23;4.73;;;4.20;;
11539;SDS011;5826;54.756;9.192;2023-03-01T15:18:53;5.53;;;4.43;;
11539;SDS011;5826;54.756;9.192;2023-03-01T15:21:22;4.33;;;3.87;;
11539;SDS011;5826;54.756;9.192;2023-03-01T15:23:51;6.33;;;5.13;;
11539;SDS011;5826;54.756;9.192;2023-03-01T15:27:01;5.77;;;4.00;;
11539;SDS011;5826;54.756;9.192;2023-03-01T15:29:20;5.00;;;4.03;;
11539;SDS011;5826;54.756;9.192;2023-03-01T15:32:20;4.70;;;4.20;;
11539;SDS011;5826;54.756;9.192;2023-03-01T15:34:50;6.03;;;5.33;;
11539;SDS011;5826;54.756;9.192;2023-03-01T15:42:56;4.13;;;3.50;;
11539;SDS011;5826;54.756;9.192;2023-03-01T15:45:27;3.83;;;3.43;;
11539;SDS011;5826;54.756;9.192;2023-03-01T15:47:54;3.70;;;3.40;;
11539;SDS011;5826;54.756;9.192;2023-03-01T15:50:27;4.37;;;3.97;;
11539;SDS011;5826;54.756;9.192;2023-03-01T15:52:57;5.33;;;4.43;;
11539;SDS011;5826;54.756;9.192;2023-03-01T15:55:25;3.83;;;3.43;;
11539;SDS011;5826;54.756;9.192;2023-03-01T15:58:02;3.87;;;3.47;;
11539;SDS011;5826;54.756;9.192;2023-03-01T16:00:35;4.17;;;3.77;;
11539;SDS011;5826;54.756;9.192;2023-03-01T16:03:00;4.53;;;3.50;;
11539;SDS011;5826;54.756;9.192;2023-03-01T16:05:27;4.97;;;4.27;;
11539;SDS011;5826;54.756;9.192;2023-03-01T16:07:55;5.00;;;4.50;;
11539;SDS011;5826;54.756;9.192;2023-03-01T16:10:21;5.13;;;4.13;;
11539;SDS011;5826;54.756;9.192;2023-03-01T16:12:48;4.50;;;4.10;;
11539;SDS011;5826;54.756;9.192;2023-03-01T16:15:20;4.35;;;3.83;;
11539;SDS011;5826;54.756;9.192;2023-03-01T16:17:54;4.20;;;3.80;;
11539;SDS011;5826;54.756;9.192;2023-03-01T16:20:20;4.60;;;3.90;;
11539;SDS011;5826;54.756;9.192;2023-03-01T16:22:47;4.67;;;4.20;;
11539;SDS011;5826;54.756;9.192;2023-03-01T16:25:14;4.60;;;4.07;;
11539;SDS011;5826;54.756;9.192;2023-03-01T16:27:44;3.87;;;3.47;;
11539;SDS011;5826;54.756;9.192;2023-03-01T16:30:12;4.63;;;4.10;;
11539;SDS011;5826;54.756;9.192;2023-03-01T16:32:39;5.33;;;4.30;;
11539;SDS011;5826;54.756;9.192;2023-03-01T16:35:06;4.70;;;4.30;;
11539;SDS011;5826;54.756;9.192;2023-03-01T16:37:33;4.10;;;3.70;;
11539;SDS011;5826;54.756;9.192;2023-03-01T16:39:59;4.70;;;4.30;;
11539;SDS011;5826;54.756;9.192;2023-03-01T16:42:25;5.23;;;4.30;;
11539;SDS011;5826;54.756;9.192;2023-03-01T16:44:54;4.80;;;4.17;;
11539;SDS011;5826;54.756;9.192;2023-03-01T16:47:21;4.70;;;4.20;;
11539;SDS011;5826;54.756;9.192;2023-03-01T16:49:46;5.43;;;4.60;;
11539;SDS011;5826;54.756;9.192;2023-03-01T16:52:12;5.13;;;4.20;;
11539;SDS011;5826;54.756;9.192;2023-03-01T16:54:37;5.67;;;5.00;;
11539;SDS011;5826;54.756;9.192;2023-03-01T16:57:03;5.13;;;4.20;;
11539;SDS011;5826;54.756;9.192;2023-03-01T16:59:29;5.80;;;4.70;;
11539;SDS011;5826;54.756;9.192;2023-03-01T17:01:55;5.30;;;4.80;;
11539;SDS011;5826;54.756;9.192;2023-03-01T17:04:20;5.00;;;4.50;;
11539;SDS011;5826;54.756;9.192;2023-03-01T17:06:46;5.40;;;4.50;;
11539;SDS011;5826;54.756;9.192;2023-03-01T17:09:13;5.20;;;4.50;;
11539;SDS011;5826;54.756;9.192;2023-03-01T17:11:39;5.97;;;4.93;;